createdAt,value
2023-05-08T00:01:45.447Z,99545.16
2023-05-08T00:04:12.325Z,99542.89
2023-05-08T00:06:39.197Z,99546.34
2023-05-08T00:09:06.059Z,99550.48
2023-05-08T00:11:32.869Z,99551.84
2023-05-08T00:13:59.620Z,99552.70
2023-05-08T00:16:26.473Z,99558.52
2023-05-08T00:18:54.236Z,99560.17
2023-05-08T00:21:21.095Z,99562.52
2023-05-08T00:23:47.920Z,99563.45
2023-05-08T00:26:14.642Z,99570.79
2023-05-08T00:28:41.407Z,99569.67
2023-05-08T00:31:08.246Z,99573.20
2023-05-08T00:33:35.073Z,99571.25
2023-05-08T00:36:02.216Z,99571.23
2023-05-08T00:38:35.231Z,99575.83
2023-05-08T00:41:02.742Z,99581.48
2023-05-08T00:43:29.547Z,99582.83
2023-05-08T00:45:57.067Z,99586.09
2023-05-08T00:48:24.074Z,99582.48
2023-05-08T00:50:51.936Z,99584.02
2023-05-08T00:53:19.577Z,99588.69
2023-05-08T00:55:46.517Z,99591.65
2023-05-08T00:58:13.769Z,99592.86
2023-05-08T01:00:41.969Z,99598.54
2023-05-08T01:03:09.505Z,99598.37
2023-05-08T01:05:36.705Z,99603.38
2023-05-08T01:08:04.021Z,99603.20
2023-05-08T01:10:48.549Z,99605.10
2023-05-08T01:13:34.420Z,99607.48
2023-05-08T01:16:25.073Z,99604.02
2023-05-08T01:19:01.634Z,99603.46
2023-05-08T01:21:38.140Z,99606.90
2023-05-08T01:24:44.152Z,99607.55
2023-05-08T01:27:29.751Z,99610.45
2023-05-08T01:30:18.469Z,99611.66
2023-05-08T01:32:55.939Z,99614.58
2023-05-08T01:35:49.888Z,99615.25
2023-05-08T01:38:25.366Z,99626.92
2023-05-08T01:41:25.816Z,99621.23
2023-05-08T01:43:56.047Z,99622.23
2023-05-08T01:46:25.398Z,99624.81
2023-05-08T01:49:11.722Z,99626.89
2023-05-08T01:51:49.574Z,99627.62
2023-05-08T01:54:16.813Z,99634.16
2023-05-08T01:56:44.612Z,99637.24
2023-05-08T01:59:14.097Z,99633.24
2023-05-08T02:01:40.958Z,99640.12
2023-05-08T02:04:08.130Z,99644.91
2023-05-08T02:06:37.203Z,99646.58
2023-05-08T02:09:04.063Z,99645.17
2023-05-08T02:11:32.025Z,99656.29
2023-05-08T02:13:58.960Z,99647.77
2023-05-08T02:16:26.181Z,99647.70
2023-05-08T02:18:54.407Z,99651.27
2023-05-08T02:21:21.386Z,99654.86
2023-05-08T02:23:48.284Z,99650.00
2023-05-08T02:26:15.843Z,99655.67
2023-05-08T02:28:42.604Z,99658.05
2023-05-08T02:31:09.738Z,99659.76
2023-05-08T02:33:37.917Z,99663.02
2023-05-08T02:36:04.850Z,99667.63
2023-05-08T02:38:31.908Z,99669.34
2023-05-08T02:41:01.011Z,99669.98
2023-05-08T02:43:27.963Z,99668.95
2023-05-08T02:46:14.004Z,99670.49
2023-05-08T02:48:58.553Z,99676.55
2023-05-08T02:51:28.098Z,99673.27
2023-05-08T02:53:58.812Z,99674.78
2023-05-08T02:56:32.998Z,99676.81
2023-05-08T02:59:13.692Z,99677.52
2023-05-08T03:01:52.248Z,99684.90
2023-05-08T03:04:32.581Z,99684.02
2023-05-08T03:06:59.507Z,99685.07
2023-05-08T03:09:28.314Z,99686.29
2023-05-08T03:11:59.585Z,99692.46
2023-05-08T03:14:26.519Z,99694.52
2023-05-08T03:16:53.369Z,99689.20
2023-05-08T03:19:28.345Z,99690.40
2023-05-08T03:21:55.165Z,99688.72
2023-05-08T03:24:22.822Z,99687.36
2023-05-08T03:26:49.876Z,99693.39
2023-05-08T03:29:16.953Z,99696.34
2023-05-08T03:31:43.903Z,99694.83
2023-05-08T03:34:12.357Z,99700.51
2023-05-08T03:36:39.423Z,99702.92
2023-05-08T03:39:06.861Z,99703.48
2023-05-08T03:41:33.777Z,99706.59
2023-05-08T03:44:00.776Z,99709.54
2023-05-08T03:46:27.764Z,99710.77
2023-05-08T03:48:55.920Z,99711.46
2023-05-08T03:51:23.046Z,99717.67
2023-05-08T03:53:50.102Z,99713.54
2023-05-08T03:56:17.558Z,99717.66
2023-05-08T03:58:52.095Z,99718.88
2023-05-08T04:01:26.148Z,99720.08
2023-05-08T04:04:06.698Z,99718.59
2023-05-08T04:06:57.067Z,99717.22
2023-05-08T04:09:34.704Z,99716.36
2023-05-08T04:12:15.441Z,99720.51
2023-05-08T04:14:50.809Z,99721.17
2023-05-08T04:17:28.804Z,99726.34
2023-05-08T04:19:59.168Z,99726.85
2023-05-08T04:22:26.251Z,99725.14
2023-05-08T04:24:53.208Z,99727.38
2023-05-08T04:27:20.456Z,99729.29
2023-05-08T04:29:47.223Z,99730.16
2023-05-08T04:32:14.230Z,99732.08
2023-05-08T04:34:41.190Z,99730.36
2023-05-08T04:37:08.198Z,99739.19
2023-05-08T04:39:35.546Z,99739.70
2023-05-08T04:42:04.660Z,99739.71
2023-05-08T04:44:32.384Z,99745.75
2023-05-08T04:46:59.331Z,99746.97
2023-05-08T04:49:26.497Z,99752.86
2023-05-08T04:51:53.246Z,99756.13
2023-05-08T04:54:20.083Z,99756.11
2023-05-08T04:56:46.972Z,99759.06
2023-05-08T04:59:15.440Z,99755.63
2023-05-08T05:01:43.250Z,99762.23
2023-05-08T05:04:10.164Z,99759.70
2023-05-08T05:08:00.877Z,99757.23
2023-05-08T05:10:27.925Z,99763.97
2023-05-08T05:12:54.936Z,99760.23
2023-05-08T05:15:22.590Z,99763.19
2023-05-08T05:17:49.547Z,99764.06
2023-05-08T05:20:17.217Z,99767.17
2023-05-08T05:22:44.404Z,99769.75
2023-05-08T05:25:12.426Z,99773.55
2023-05-08T05:27:40.038Z,99779.44
2023-05-08T05:30:13.929Z,99781.12
2023-05-08T05:32:45.252Z,99781.96
2023-05-08T05:35:14.386Z,99784.86
2023-05-08T05:37:41.537Z,99782.28
2023-05-08T05:40:09.064Z,99785.23
2023-05-08T05:42:37.177Z,99786.48
2023-05-08T05:45:04.527Z,99785.19
2023-05-08T05:47:31.943Z,99783.76
2023-05-08T05:49:59.230Z,99784.73
2023-05-08T05:52:26.761Z,99787.90
2023-05-08T05:54:53.661Z,99790.88
2023-05-08T05:57:20.648Z,99793.69
2023-05-08T05:59:47.481Z,99792.13
2023-05-08T06:02:18.668Z,99797.96
2023-05-08T06:04:46.228Z,99797.41
2023-05-08T06:07:13.133Z,99794.83
2023-05-08T06:09:40.433Z,99794.98
2023-05-08T06:12:10.453Z,99793.70
2023-05-08T06:14:37.623Z,99797.14
2023-05-08T06:17:05.604Z,99795.41
2023-05-08T06:19:32.486Z,99800.05
2023-05-08T06:21:59.313Z,99799.52
2023-05-08T06:24:26.194Z,99801.45
2023-05-08T06:26:52.982Z,99801.48
2023-05-08T06:29:19.700Z,99805.43
2023-05-08T06:31:46.636Z,99805.95
2023-05-08T06:34:13.480Z,99810.42
2023-05-08T06:36:40.427Z,99814.76
2023-05-08T06:39:07.776Z,99814.41
2023-05-08T06:41:34.635Z,99813.93
2023-05-08T06:44:01.427Z,99820.17
2023-05-08T06:46:30.026Z,99819.84
2023-05-08T06:49:01.702Z,99820.52
2023-05-08T06:51:28.639Z,99820.92
2023-05-08T06:53:55.486Z,99820.60
2023-05-08T06:56:22.880Z,99822.70
2023-05-08T06:59:00.464Z,99822.76
2023-05-08T07:01:31.550Z,99826.42
2023-05-08T07:04:01.065Z,99832.46
2023-05-08T07:06:27.829Z,99832.92
2023-05-08T07:08:54.599Z,99838.09
2023-05-08T07:11:21.531Z,99845.69
2023-05-08T07:13:48.469Z,99845.55
2023-05-08T07:16:16.308Z,99853.68
2023-05-08T07:18:44.275Z,99853.72
2023-05-08T07:21:11.314Z,99848.56
2023-05-08T07:23:38.219Z,99853.95
2023-05-08T07:26:05.044Z,99858.46
2023-05-08T07:28:31.783Z,99859.02
2023-05-08T07:30:58.887Z,99857.53
2023-05-08T07:33:26.021Z,99860.52
2023-05-08T07:35:52.962Z,99859.67
2023-05-08T07:38:19.669Z,99860.02
2023-05-08T07:40:46.760Z,99862.77
2023-05-08T07:43:15.122Z,99860.02
2023-05-08T07:45:41.920Z,99860.95
2023-05-08T07:48:09.262Z,99865.56
2023-05-08T07:50:36.542Z,99870.83
2023-05-08T07:53:03.305Z,99867.55
2023-05-08T07:55:30.182Z,99869.77
2023-05-08T07:57:56.966Z,99870.95
2023-05-08T08:00:23.958Z,99869.36
2023-05-08T08:02:51.027Z,99867.64
2023-05-08T08:05:18.071Z,99869.96
2023-05-08T08:07:45.190Z,99873.70
2023-05-08T08:10:12.532Z,99872.77
2023-05-08T08:12:39.445Z,99875.97
2023-05-08T08:15:06.760Z,99877.45
2023-05-08T08:17:33.827Z,99878.39
2023-05-08T08:20:00.959Z,99879.28
2023-05-08T08:22:27.814Z,99879.44
2023-05-08T08:24:57.665Z,99878.73
2023-05-08T08:27:24.448Z,99876.69
2023-05-08T08:29:56.347Z,99879.80
2023-05-08T08:32:31.653Z,99879.27
2023-05-08T08:34:58.596Z,99878.23
2023-05-08T08:37:26.427Z,99879.20
2023-05-08T08:39:53.684Z,99880.17
2023-05-08T08:42:20.516Z,99883.30
2023-05-08T08:44:47.392Z,99880.40
2023-05-08T08:47:14.911Z,99886.46
2023-05-08T08:49:43.711Z,99885.90
2023-05-08T08:52:37.715Z,99884.52
2023-05-08T08:55:05.676Z,99885.44
2023-05-08T08:57:33.860Z,99888.95
2023-05-08T09:00:03.918Z,99890.58
2023-05-08T09:02:31.388Z,99892.33
2023-05-08T09:04:58.813Z,99893.91
2023-05-08T09:07:26.192Z,99895.00
2023-05-08T09:09:53.075Z,99898.83
2023-05-08T09:12:19.919Z,99902.79
2023-05-08T09:14:47.066Z,99902.95
2023-05-08T09:17:14.460Z,99905.07
2023-05-08T09:19:41.235Z,99906.31
2023-05-08T09:22:09.409Z,99905.98
2023-05-08T09:24:59.399Z,99909.09
2023-05-08T09:27:28.934Z,99909.48
2023-05-08T09:30:04.561Z,99907.92
2023-05-08T09:32:32.112Z,99913.94
2023-05-08T09:34:59.044Z,99912.36
2023-05-08T09:37:26.286Z,99916.08
2023-05-08T09:39:53.788Z,99913.91
2023-05-08T09:42:20.935Z,99914.45
2023-05-08T09:44:51.906Z,99916.56
2023-05-08T09:47:20.695Z,99914.45
2023-05-08T09:50:08.220Z,99914.45
2023-05-08T09:52:37.525Z,99914.55
2023-05-08T09:55:05.766Z,99922.69
2023-05-08T09:57:34.017Z,99919.62
2023-05-08T10:00:12.281Z,99917.06
2023-05-08T10:02:40.909Z,99918.98
2023-05-08T10:05:24.446Z,99916.59
2023-05-08T10:07:51.410Z,99917.52
2023-05-08T10:10:28.753Z,99917.21
2023-05-08T10:12:56.464Z,99922.48
2023-05-08T10:15:24.861Z,99919.91
2023-05-08T10:18:01.350Z,99923.23
2023-05-08T10:20:30.288Z,99923.27
2023-05-08T10:22:57.629Z,99921.09
2023-05-08T10:25:25.986Z,99921.30
2023-05-08T10:28:13.165Z,99923.39
2023-05-08T10:30:44.748Z,99920.98
2023-05-08T10:33:11.654Z,99926.29
2023-05-08T10:35:38.720Z,99926.98
2023-05-08T10:38:06.146Z,99927.50
2023-05-08T10:40:33.108Z,99927.42
2023-05-08T10:43:02.394Z,99924.90
2023-05-08T10:45:33.973Z,99927.54
2023-05-08T10:48:13.467Z,99929.96
2023-05-08T10:50:59.653Z,99930.98
2023-05-08T10:53:46.515Z,99934.95
2023-05-08T10:56:13.645Z,99935.85
2023-05-08T10:58:40.422Z,99936.42
2023-05-08T11:01:07.869Z,99937.80
2023-05-08T11:03:40.891Z,99935.39
2023-05-08T11:06:08.210Z,99933.38
2023-05-08T11:08:43.767Z,99930.65
2023-05-08T11:11:17.434Z,99932.23
2023-05-08T11:13:50.345Z,99933.70
2023-05-08T11:16:17.365Z,99937.02
2023-05-08T11:19:16.457Z,99935.02
2023-05-08T11:22:12.403Z,99933.16
2023-05-08T11:24:40.146Z,99935.17
2023-05-08T11:27:07.530Z,99933.66
2023-05-08T11:29:34.370Z,99929.89
2023-05-08T11:32:01.371Z,99925.95
2023-05-08T11:34:44.398Z,99927.55
2023-05-08T11:37:22.185Z,99927.09
2023-05-08T11:39:49.197Z,99925.29
2023-05-08T11:42:36.548Z,99926.39
2023-05-08T11:45:10.865Z,99921.95
2023-05-08T11:47:42.890Z,99923.33
2023-05-08T11:50:13.511Z,99921.23
2023-05-08T11:52:41.392Z,99925.88
2023-05-08T11:55:09.605Z,99929.33
2023-05-08T11:57:40.142Z,99926.91
2023-05-08T12:00:10.876Z,99929.67
2023-05-08T12:02:42.565Z,99930.34
2023-05-08T12:05:10.477Z,99928.27
2023-05-08T12:07:47.263Z,99926.36
2023-05-08T12:10:15.194Z,99928.26
2023-05-08T12:12:43.367Z,99931.05
2023-05-08T12:15:14.067Z,99930.56
2023-05-08T12:17:41.743Z,99931.78
2023-05-08T12:20:13.440Z,99933.17
2023-05-08T12:22:41.843Z,99931.97
2023-05-08T12:25:10.410Z,99931.30
2023-05-08T12:27:37.810Z,99929.75
2023-05-08T12:30:09.217Z,99931.34
2023-05-08T12:32:40.818Z,99931.95
2023-05-08T12:35:08.309Z,99932.35
2023-05-08T12:37:35.478Z,99931.87
2023-05-08T12:40:03.089Z,99938.48
2023-05-08T12:42:43.190Z,99931.90
2023-05-08T12:45:18.086Z,99934.02
2023-05-08T12:47:49.921Z,99931.95
2023-05-08T12:50:17.442Z,99931.45
2023-05-08T12:52:44.530Z,99929.21
2023-05-08T12:55:24.740Z,99928.02
2023-05-08T12:58:02.458Z,99930.13
2023-05-08T13:00:43.930Z,99930.11
2023-05-08T13:03:12.184Z,99932.69
2023-05-08T13:05:45.926Z,99935.80
2023-05-08T13:08:13.000Z,99933.36
2023-05-08T13:10:47.081Z,99933.69
2023-05-08T13:13:18.927Z,99932.48
2023-05-08T13:15:46.197Z,99931.08
2023-05-08T13:18:13.156Z,99925.37
2023-05-08T13:20:40.232Z,99929.16
2023-05-08T13:23:07.419Z,99928.12
2023-05-08T13:25:34.268Z,99928.13
2023-05-08T13:28:01.488Z,99927.75
2023-05-08T13:30:28.333Z,99925.30
2023-05-08T13:32:55.348Z,99927.90
2023-05-08T13:35:22.294Z,99927.38
2023-05-08T13:37:49.162Z,99929.44
2023-05-08T13:40:16.105Z,99927.17
2023-05-08T13:42:43.120Z,99929.77
2023-05-08T13:45:16.434Z,99928.56
2023-05-08T13:47:43.692Z,99929.61
2023-05-08T13:50:11.421Z,99930.29
2023-05-08T13:52:38.581Z,99933.60
2023-05-08T13:55:06.954Z,99930.16
2023-05-08T13:57:33.704Z,99929.46
2023-05-08T14:00:00.945Z,99932.62
2023-05-08T14:02:28.094Z,99933.30
2023-05-08T14:04:55.662Z,99931.73
2023-05-08T14:07:22.534Z,99932.05
2023-05-08T14:09:49.445Z,99931.01
2023-05-08T14:12:16.291Z,99931.36
2023-05-08T14:14:43.050Z,99929.98
2023-05-08T14:17:10.716Z,99931.21
2023-05-08T14:19:37.564Z,99927.58
2023-05-08T14:22:04.909Z,99933.64
2023-05-08T14:24:31.678Z,99929.48
2023-05-08T14:26:59.419Z,99932.76
2023-05-08T14:29:26.167Z,99930.67
2023-05-08T14:31:53.147Z,99934.99
2023-05-08T14:34:20.059Z,99938.09
2023-05-08T14:36:46.802Z,99936.52
2023-05-08T14:39:13.587Z,99939.27
2023-05-08T14:41:40.506Z,99942.55
2023-05-08T14:44:07.379Z,99942.02
2023-05-08T14:46:34.114Z,99944.45
2023-05-08T14:49:00.953Z,99944.09
2023-05-08T14:51:28.295Z,99948.07
2023-05-08T14:53:55.141Z,99944.79
2023-05-08T14:56:24.658Z,99948.80
2023-05-08T14:58:52.120Z,99946.73
2023-05-08T15:01:19.374Z,99947.94
2023-05-08T15:03:52.966Z,99946.55
2023-05-08T15:06:23.678Z,99951.23
2023-05-08T15:08:51.892Z,99953.98
2023-05-08T15:11:18.688Z,99954.85
2023-05-08T15:13:46.255Z,99950.32
2023-05-08T15:16:13.024Z,99953.23
2023-05-08T15:18:40.369Z,99958.62
2023-05-08T15:21:07.199Z,99956.86
2023-05-08T15:23:33.999Z,99959.25
2023-05-08T15:26:02.537Z,99952.81
2023-05-08T15:28:29.270Z,99952.98
2023-05-08T15:30:56.081Z,99952.98
2023-05-08T15:33:22.975Z,99953.67
2023-05-08T15:35:49.831Z,99958.14
2023-05-08T15:38:16.597Z,99953.64
2023-05-08T15:40:43.349Z,99950.89
2023-05-08T15:43:10.718Z,99950.02
2023-05-08T15:45:37.754Z,99947.09
2023-05-08T15:48:05.068Z,99951.79
2023-05-08T15:50:31.839Z,99948.67
2023-05-08T15:52:58.610Z,99950.05
2023-05-08T15:55:25.433Z,99951.25
2023-05-08T15:57:52.165Z,99951.59
2023-05-08T16:00:22.955Z,99949.68
2023-05-08T16:02:50.099Z,99948.98
2023-05-08T16:05:17.076Z,99946.56
2023-05-08T16:07:44.973Z,99942.21
2023-05-08T16:10:12.629Z,99947.40
2023-05-08T16:12:39.588Z,99944.63
2023-05-08T16:15:07.128Z,99943.40
2023-05-08T16:17:34.316Z,99945.99
2023-05-08T16:20:01.714Z,99950.83
2023-05-08T16:22:28.546Z,99955.69
2023-05-08T16:24:55.379Z,99956.02
2023-05-08T16:27:22.200Z,99954.97
2023-05-08T16:29:49.372Z,99955.48
2023-05-08T16:32:16.621Z,99955.84
2023-05-08T16:34:44.501Z,99958.63
2023-05-08T16:37:11.247Z,99957.77
2023-05-08T16:39:38.023Z,99961.59
2023-05-08T16:42:06.291Z,99960.37
2023-05-08T16:44:33.316Z,99963.10
2023-05-08T16:47:00.139Z,99956.16
2023-05-08T16:49:27.320Z,99962.05
2023-05-08T16:51:54.068Z,99964.45
2023-05-08T16:54:20.802Z,99961.33
2023-05-08T16:56:47.579Z,99966.34
2023-05-08T16:59:14.392Z,99964.10
2023-05-08T17:01:41.151Z,99965.12
2023-05-08T17:04:07.984Z,99964.24
2023-05-08T17:06:34.783Z,99968.05
2023-05-08T17:09:01.498Z,99968.91
2023-05-08T17:11:28.624Z,99969.96
2023-05-08T17:13:55.510Z,99971.67
2023-05-08T17:16:22.607Z,99974.10
2023-05-08T17:18:49.680Z,99976.89
2023-05-08T17:21:16.751Z,99975.85
2023-05-08T17:26:11.954Z,99981.07
2023-05-08T17:28:38.949Z,99986.23
2023-05-08T17:31:05.906Z,99990.55
2023-05-08T17:33:33.596Z,99994.36
2023-05-08T17:36:01.509Z,99995.08
2023-05-08T17:38:28.484Z,99999.23
2023-05-08T17:40:56.416Z,100008.75
2023-05-08T17:43:23.186Z,100009.08
2023-05-08T17:45:50.131Z,100010.98
2023-05-08T17:48:16.974Z,100013.57
2023-05-08T17:50:45.780Z,100011.13
2023-05-08T17:53:12.901Z,100011.45
2023-05-08T17:55:39.675Z,100011.98
2023-05-08T17:58:06.469Z,100012.67
2023-05-08T18:00:33.167Z,100012.30
2023-05-08T18:03:00.251Z,100017.65
2023-05-08T18:05:27.299Z,100013.65
2023-05-08T18:07:54.124Z,100018.15
2023-05-08T18:10:21.393Z,100018.83
2023-05-08T18:12:48.352Z,100022.11
2023-05-08T18:15:15.194Z,100025.21
2023-05-08T18:17:41.975Z,100027.81
2023-05-08T18:20:10.092Z,100027.98
2023-05-08T18:22:36.904Z,100031.61
2023-05-08T18:25:03.874Z,100032.98
2023-05-08T18:27:33.680Z,100037.32
2023-05-08T18:30:00.492Z,100038.02
2023-05-08T18:32:27.771Z,100040.08
2023-05-08T18:34:54.631Z,100041.98
2023-05-08T18:37:21.560Z,100046.67
2023-05-08T18:39:48.408Z,100046.84
2023-05-08T18:42:15.900Z,100047.52
2023-05-08T18:44:42.835Z,100049.45
2023-05-08T18:47:09.727Z,100052.77
2023-05-08T18:49:36.506Z,100052.94
2023-05-08T18:52:03.380Z,100056.77
2023-05-08T18:54:30.336Z,100056.46
2023-05-08T18:56:57.688Z,100050.92
2023-05-08T18:59:24.453Z,100055.98
2023-05-08T19:01:51.482Z,100051.65
2023-05-08T19:04:18.222Z,100050.61
2023-05-08T19:06:45.084Z,100052.00
2023-05-08T19:09:11.939Z,100048.54
2023-05-08T19:11:38.660Z,100051.48
2023-05-08T19:14:05.625Z,100048.55
2023-05-08T19:16:32.541Z,100047.15
2023-05-08T19:18:59.543Z,100048.02
2023-05-08T19:21:26.276Z,100046.63
2023-05-08T19:23:53.095Z,100047.65
2023-05-08T19:26:19.929Z,100047.27
2023-05-08T19:28:46.780Z,100048.94
2023-05-08T19:31:14.162Z,100051.14
2023-05-08T19:33:40.992Z,100048.66
2023-05-08T19:36:07.825Z,100048.29
2023-05-08T19:38:34.608Z,100048.60
2023-05-08T19:41:01.398Z,100044.79
2023-05-08T19:43:28.485Z,100044.64
2023-05-08T19:45:55.986Z,100040.31
2023-05-08T19:48:24.091Z,100040.30
2023-05-08T19:50:53.569Z,100040.98
2023-05-08T19:53:22.625Z,100037.48
2023-05-08T19:55:49.760Z,100038.98
2023-05-08T19:58:18.091Z,100030.28
2023-05-08T20:00:51.026Z,100031.63
2023-05-08T20:03:18.134Z,100027.61
2023-05-08T20:05:45.035Z,100029.30
2023-05-08T20:08:11.790Z,100026.52
2023-05-08T20:10:38.624Z,100023.22
2023-05-08T20:13:05.654Z,100018.51
2023-05-08T20:15:32.718Z,100017.64
2023-05-08T20:17:59.822Z,100013.11
2023-05-08T20:20:27.260Z,100011.02
2023-05-08T20:22:54.001Z,100008.23
2023-05-08T20:25:20.811Z,100003.73
2023-05-08T20:27:47.564Z,100006.13
2023-05-08T20:30:14.616Z,100005.59
2023-05-08T20:32:41.661Z,100008.70
2023-05-08T20:35:09.031Z,100009.55
2023-05-08T20:37:35.779Z,100008.01
2023-05-08T20:40:04.854Z,100006.94
2023-05-08T20:42:31.910Z,100009.88
2023-05-08T20:44:58.644Z,100008.17
2023-05-08T20:47:25.625Z,100008.70
2023-05-08T20:49:52.453Z,100006.84
2023-05-08T20:52:19.172Z,100009.27
2023-05-08T20:54:47.292Z,100009.13
2023-05-08T20:57:15.786Z,100010.52
2023-05-08T20:59:42.519Z,100014.15
2023-05-08T21:02:09.383Z,100015.17
2023-05-08T21:04:36.644Z,100015.36
2023-05-08T21:07:03.563Z,100013.66
2023-05-08T21:09:30.406Z,100015.23
2023-05-08T21:11:57.152Z,100012.66
2023-05-08T21:14:23.940Z,100009.02
2023-05-08T21:16:50.782Z,100010.24
2023-05-08T21:19:17.595Z,100010.29
2023-05-08T21:21:45.001Z,100009.95
2023-05-08T21:24:11.889Z,100010.33
2023-05-08T21:26:38.722Z,100009.98
2023-05-08T21:29:05.461Z,100013.13
2023-05-08T21:31:33.668Z,100013.81
2023-05-08T21:34:00.393Z,100013.47
2023-05-08T21:36:27.131Z,100015.73
2023-05-08T21:38:55.229Z,100011.95
2023-05-08T21:41:22.158Z,100009.36
2023-05-08T21:43:48.998Z,100009.20
2023-05-08T21:46:15.822Z,100010.08
2023-05-08T21:48:42.670Z,100011.13
2023-05-08T21:51:09.412Z,100007.84
2023-05-08T21:53:36.363Z,100009.23
2023-05-08T21:56:03.435Z,100007.33
2023-05-08T21:58:30.174Z,100008.88
2023-05-08T22:00:58.549Z,100006.61
2023-05-08T22:03:25.796Z,100008.16
2023-05-08T22:05:52.645Z,100006.42
2023-05-08T22:08:19.679Z,100004.35
2023-05-08T22:10:46.540Z,100002.42
2023-05-08T22:13:13.415Z,100003.79
2023-05-08T22:15:40.414Z,99999.80
2023-05-08T22:18:07.261Z,99999.64
2023-05-08T22:20:34.355Z,99997.91
2023-05-08T22:23:01.347Z,99997.91
2023-05-08T22:25:28.215Z,99996.86
2023-05-08T22:27:54.923Z,99995.14
2023-05-08T22:30:22.279Z,99996.52
2023-05-08T22:32:54.838Z,99994.81
2023-05-08T22:35:25.698Z,99993.27
2023-05-08T22:37:52.947Z,99992.38
2023-05-08T22:40:20.523Z,99995.78
2023-05-08T22:42:47.286Z,99997.27
2023-05-08T22:45:14.333Z,99995.80
2023-05-08T22:47:41.327Z,99995.38
2023-05-08T22:50:09.305Z,99993.58
2023-05-08T22:52:36.694Z,99992.33
2023-05-08T22:55:04.148Z,99993.33
2023-05-08T22:57:30.968Z,99991.23
2023-05-08T22:59:57.828Z,99990.52
2023-05-08T23:02:24.628Z,99992.20
2023-05-08T23:04:51.652Z,99989.44
2023-05-08T23:07:18.660Z,99989.09
2023-05-08T23:09:45.381Z,99986.98
2023-05-08T23:12:12.356Z,99987.10
2023-05-08T23:14:39.071Z,99979.96
2023-05-08T23:17:05.900Z,99979.93
2023-05-08T23:19:32.829Z,99979.73
2023-05-08T23:21:59.613Z,99980.05
2023-05-08T23:24:26.344Z,99981.73
2023-05-08T23:26:53.307Z,99978.95
2023-05-08T23:29:20.021Z,99977.19
2023-05-08T23:31:46.934Z,99971.61
2023-05-08T23:34:13.808Z,99973.65
2023-05-08T23:36:40.574Z,99968.60
2023-05-08T23:39:07.514Z,99970.98
2023-05-08T23:41:34.242Z,99970.77
2023-05-08T23:44:00.981Z,99972.81
2023-05-08T23:46:27.716Z,99969.48
2023-05-08T23:48:54.475Z,99966.88
2023-05-08T23:51:21.610Z,99967.19
2023-05-08T23:53:49.075Z,99964.06
2023-05-08T23:56:16.127Z,99962.51
2023-05-08T23:58:42.883Z,99958.69
